sensor_id;sensor_type;location;lat;lon;timestamp;P1;durP1;ratioP1;P2;durP2;ratioP2
41903;SDS011;27586;51.124;4.182;2023-09-19T00:00:37;7.40;;;2.72;;
41903;SDS011;27586;51.124;4.182;2023-09-19T00:03:03;9.43;;;2.60;;
41903;SDS011;27586;51.124;4.182;2023-09-19T00:05:33;9.48;;;2.58;;
41903;SDS011;27586;51.124;4.182;2023-09-19T00:08:00;8.75;;;2.50;;
41903;SDS011;27586;51.124;4.182;2023-09-19T00:10:29;8.30;;;2.83;;
41903;SDS011;27586;51.124;4.182;2023-09-19T00:13:00;7.13;;;2.40;;
41903;SDS011;27586;51.124;4.182;2023-09-19T00:15:36;5.43;;;2.38;;
41903;SDS011;27586;51.124;4.182;2023-09-19T00:18:06;7.85;;;2.90;;
41903;SDS011;27586;51.124;4.182;2023-09-19T00:20:35;6.05;;;2.17;;
41903;SDS011;27586;51.124;4.182;2023-09-19T00:23:01;8.88;;;2.60;;
41903;SDS011;27586;51.124;4.182;2023-09-19T00:25:34;6.25;;;2.45;;
41903;SDS011;27586;51.124;4.182;2023-09-19T00:28:00;5.45;;;2.42;;
41903;SDS011;27586;51.124;4.182;2023-09-19T00:30:26;7.13;;;2.47;;
41903;SDS011;27586;51.124;4.182;2023-09-19T00:32:52;8.00;;;2.50;;
41903;SDS011;27586;51.124;4.182;2023-09-19T00:35:18;6.68;;;2.53;;
41903;SDS011;27586;51.124;4.182;2023-09-19T00:37:50;6.65;;;2.15;;
41903;SDS011;27586;51.124;4.182;2023-09-19T00:40:16;6.00;;;2.22;;
41903;SDS011;27586;51.124;4.182;2023-09-19T00:42:42;6.53;;;2.33;;
41903;SDS011;27586;51.124;4.182;2023-09-19T00:45:08;7.65;;;2.53;;
41903;SDS011;27586;51.124;4.182;2023-09-19T00:47:37;6.75;;;2.78;;
41903;SDS011;27586;51.124;4.182;2023-09-19T00:50:05;9.20;;;2.53;;
41903;SDS011;27586;51.124;4.182;2023-09-19T00:52:35;7.95;;;2.70;;
41903;SDS011;27586;51.124;4.182;2023-09-19T00:55:03;4.90;;;2.25;;
41903;SDS011;27586;51.124;4.182;2023-09-19T00:57:30;5.90;;;2.10;;
41903;SDS011;27586;51.124;4.182;2023-09-19T00:59:57;6.32;;;2.60;;
41903;SDS011;27586;51.124;4.182;2023-09-19T01:02:24;4.28;;;2.15;;
41903;SDS011;27586;51.124;4.182;2023-09-19T01:04:53;8.32;;;2.72;;
41903;SDS011;27586;51.124;4.182;2023-09-19T01:07:20;8.88;;;2.80;;
41903;SDS011;27586;51.124;4.182;2023-09-19T01:09:47;9.50;;;2.60;;
41903;SDS011;27586;51.124;4.182;2023-09-19T01:12:13;6.75;;;2.53;;
41903;SDS011;27586;51.124;4.182;2023-09-19T01:14:54;6.15;;;2.60;;
41903;SDS011;27586;51.124;4.182;2023-09-19T01:17:40;6.80;;;2.53;;
41903;SDS011;27586;51.124;4.182;2023-09-19T01:31:15;6.82;;;2.50;;
41903;SDS011;27586;51.124;4.182;2023-09-19T01:34:00;5.20;;;2.13;;
41903;SDS011;27586;51.124;4.182;2023-09-19T01:36:32;9.27;;;2.78;;
41903;SDS011;27586;51.124;4.182;2023-09-19T01:39:01;6.00;;;2.33;;
41903;SDS011;27586;51.124;4.182;2023-09-19T01:42:18;7.30;;;2.35;;
41903;SDS011;27586;51.124;4.182;2023-09-19T01:44:29;7.82;;;2.45;;
41903;SDS011;27586;51.124;4.182;2023-09-19T01:47:15;7.15;;;2.30;;
41903;SDS011;27586;51.124;4.182;2023-09-19T01:50:05;10.93;;;3.13;;
41903;SDS011;27586;51.124;4.182;2023-09-19T01:52:47;6.68;;;2.33;;
41903;SDS011;27586;51.124;4.182;2023-09-19T01:55:21;7.30;;;2.22;;
41903;SDS011;27586;51.124;4.182;2023-09-19T01:57:55;6.05;;;2.65;;
41903;SDS011;27586;51.124;4.182;2023-09-19T02:00:32;5.93;;;2.20;;
41903;SDS011;27586;51.124;4.182;2023-09-19T02:03:04;6.45;;;2.50;;
41903;SDS011;27586;51.124;4.182;2023-09-19T02:05:33;8.05;;;2.55;;
41903;SDS011;27586;51.124;4.182;2023-09-19T02:07:59;7.28;;;2.42;;
41903;SDS011;27586;51.124;4.182;2023-09-19T02:10:25;8.18;;;2.70;;
41903;SDS011;27586;51.124;4.182;2023-09-19T02:12:51;10.55;;;2.88;;
41903;SDS011;27586;51.124;4.182;2023-09-19T02:15:17;6.03;;;2.65;;
41903;SDS011;27586;51.124;4.182;2023-09-19T02:17:43;9.27;;;2.88;;
41903;SDS011;27586;51.124;4.182;2023-09-19T02:20:10;7.70;;;3.08;;
41903;SDS011;27586;51.124;4.182;2023-09-19T02:22:40;7.85;;;2.78;;
41903;SDS011;27586;51.124;4.182;2023-09-19T02:25:06;6.45;;;2.88;;
41903;SDS011;27586;51.124;4.182;2023-09-19T02:27:33;8.02;;;2.67;;
41903;SDS011;27586;51.124;4.182;2023-09-19T02:29:58;7.20;;;2.50;;
41903;SDS011;27586;51.124;4.182;2023-09-19T02:32:27;7.95;;;3.13;;
41903;SDS011;27586;51.124;4.182;2023-09-19T02:34:55;6.60;;;2.72;;
41903;SDS011;27586;51.124;4.182;2023-09-19T02:37:20;8.02;;;2.55;;
41903;SDS011;27586;51.124;4.182;2023-09-19T02:39:46;10.40;;;2.90;;
41903;SDS011;27586;51.124;4.182;2023-09-19T02:42:12;7.30;;;3.10;;
41903;SDS011;27586;51.124;4.182;2023-09-19T02:44:38;9.07;;;3.33;;
41903;SDS011;27586;51.124;4.182;2023-09-19T02:47:05;10.40;;;3.13;;
41903;SDS011;27586;51.124;4.182;2023-09-19T02:49:30;8.20;;;3.00;;
41903;SDS011;27586;51.124;4.182;2023-09-19T02:51:56;7.07;;;2.72;;
41903;SDS011;27586;51.124;4.182;2023-09-19T02:54:23;10.65;;;2.95;;
41903;SDS011;27586;51.124;4.182;2023-09-19T02:56:49;9.23;;;3.00;;
41903;SDS011;27586;51.124;4.182;2023-09-19T02:59:15;10.27;;;2.95;;
41903;SDS011;27586;51.124;4.182;2023-09-19T03:01:43;9.35;;;3.15;;
41903;SDS011;27586;51.124;4.182;2023-09-19T03:04:09;11.20;;;3.38;;
41903;SDS011;27586;51.124;4.182;2023-09-19T03:06:36;9.55;;;2.70;;
41903;SDS011;27586;51.124;4.182;2023-09-19T03:09:03;7.22;;;2.53;;
41903;SDS011;27586;51.124;4.182;2023-09-19T03:11:37;11.73;;;3.25;;
41903;SDS011;27586;51.124;4.182;2023-09-19T03:14:05;11.52;;;3.22;;
41903;SDS011;27586;51.124;4.182;2023-09-19T03:16:31;11.32;;;3.20;;
41903;SDS011;27586;51.124;4.182;2023-09-19T03:18:56;8.98;;;2.92;;
41903;SDS011;27586;51.124;4.182;2023-09-19T03:21:24;9.63;;;3.00;;
41903;SDS011;27586;51.124;4.182;2023-09-19T03:23:50;9.43;;;3.00;;
41903;SDS011;27586;51.124;4.182;2023-09-19T03:26:16;9.70;;;3.15;;
41903;SDS011;27586;51.124;4.182;2023-09-19T03:28:42;8.48;;;2.90;;
41903;SDS011;27586;51.124;4.182;2023-09-19T03:31:08;11.25;;;3.05;;
41903;SDS011;27586;51.124;4.182;2023-09-19T03:33:34;9.32;;;3.00;;
41903;SDS011;27586;51.124;4.182;2023-09-19T03:36:01;9.35;;;2.88;;
41903;SDS011;27586;51.124;4.182;2023-09-19T03:38:31;9.73;;;2.80;;
41903;SDS011;27586;51.124;4.182;2023-09-19T03:40:57;9.88;;;3.15;;
41903;SDS011;27586;51.124;4.182;2023-09-19T03:43:24;7.80;;;2.58;;
41903;SDS011;27586;51.124;4.182;2023-09-19T03:45:49;8.60;;;2.83;;
41903;SDS011;27586;51.124;4.182;2023-09-19T03:48:16;7.78;;;3.05;;
41903;SDS011;27586;51.124;4.182;2023-09-19T03:50:42;9.68;;;2.75;;
41903;SDS011;27586;51.124;4.182;2023-09-19T03:53:09;8.10;;;2.90;;
41903;SDS011;27586;51.124;4.182;2023-09-19T03:55:34;8.65;;;2.70;;
41903;SDS011;27586;51.124;4.182;2023-09-19T03:58:00;8.98;;;2.85;;
41903;SDS011;27586;51.124;4.182;2023-09-19T04:00:26;6.22;;;2.70;;
41903;SDS011;27586;51.124;4.182;2023-09-19T04:02:54;6.95;;;2.30;;
41903;SDS011;27586;51.124;4.182;2023-09-19T04:05:21;7.05;;;2.95;;
41903;SDS011;27586;51.124;4.182;2023-09-19T04:07:47;7.10;;;2.53;;
41903;SDS011;27586;51.124;4.182;2023-09-19T04:10:13;9.65;;;3.10;;
41903;SDS011;27586;51.124;4.182;2023-09-19T04:12:39;7.13;;;2.60;;
41903;SDS011;27586;51.124;4.182;2023-09-19T04:15:05;8.20;;;2.58;;
41903;SDS011;27586;51.124;4.182;2023-09-19T04:17:38;10.65;;;3.03;;
41903;SDS011;27586;51.124;4.182;2023-09-19T04:20:04;10.30;;;2.67;;
41903;SDS011;27586;51.124;4.182;2023-09-19T04:22:31;10.05;;;3.50;;
41903;SDS011;27586;51.124;4.182;2023-09-19T04:24:57;8.77;;;2.80;;
41903;SDS011;27586;51.124;4.182;2023-09-19T04:27:23;9.30;;;2.92;;
41903;SDS011;27586;51.124;4.182;2023-09-19T04:29:49;13.13;;;3.42;;
41903;SDS011;27586;51.124;4.182;2023-09-19T04:32:18;8.73;;;3.42;;
41903;SDS011;27586;51.124;4.182;2023-09-19T04:34:43;10.52;;;3.22;;
41903;SDS011;27586;51.124;4.182;2023-09-19T04:37:09;12.13;;;3.22;;
41903;SDS011;27586;51.124;4.182;2023-09-19T04:39:36;9.75;;;3.72;;
41903;SDS011;27586;51.124;4.182;2023-09-19T04:42:01;13.43;;;3.22;;
41903;SDS011;27586;51.124;4.182;2023-09-19T04:44:28;8.60;;;2.80;;
41903;SDS011;27586;51.124;4.182;2023-09-19T04:46:54;12.25;;;3.08;;
41903;SDS011;27586;51.124;4.182;2023-09-19T04:49:19;9.27;;;2.88;;
41903;SDS011;27586;51.124;4.182;2023-09-19T04:51:45;9.05;;;2.75;;
41903;SDS011;27586;51.124;4.182;2023-09-19T04:54:12;11.88;;;3.15;;
41903;SDS011;27586;51.124;4.182;2023-09-19T04:56:38;8.05;;;2.50;;
41903;SDS011;27586;51.124;4.182;2023-09-19T04:59:05;10.45;;;2.90;;
41903;SDS011;27586;51.124;4.182;2023-09-19T05:01:31;8.77;;;2.95;;
41903;SDS011;27586;51.124;4.182;2023-09-19T05:03:58;8.77;;;3.20;;
41903;SDS011;27586;51.124;4.182;2023-09-19T05:06:23;9.60;;;3.10;;
41903;SDS011;27586;51.124;4.182;2023-09-19T05:08:51;10.30;;;3.05;;
41903;SDS011;27586;51.124;4.182;2023-09-19T05:11:20;8.80;;;3.25;;
41903;SDS011;27586;51.124;4.182;2023-09-19T05:13:47;12.52;;;3.33;;
41903;SDS011;27586;51.124;4.182;2023-09-19T05:16:18;10.20;;;3.13;;
41903;SDS011;27586;51.124;4.182;2023-09-19T05:18:44;10.80;;;2.83;;
41903;SDS011;27586;51.124;4.182;2023-09-19T05:21:09;6.30;;;2.60;;
41903;SDS011;27586;51.124;4.182;2023-09-19T05:23:35;8.93;;;3.10;;
41903;SDS011;27586;51.124;4.182;2023-09-19T05:26:02;12.13;;;2.88;;
41903;SDS011;27586;51.124;4.182;2023-09-19T05:28:28;9.85;;;3.33;;
41903;SDS011;27586;51.124;4.182;2023-09-19T05:30:54;9.75;;;3.17;;
41903;SDS011;27586;51.124;4.182;2023-09-19T05:33:20;11.73;;;3.28;;
41903;SDS011;27586;51.124;4.182;2023-09-19T05:35:47;10.60;;;3.42;;
41903;SDS011;27586;51.124;4.182;2023-09-19T05:38:13;10.50;;;3.17;;
41903;SDS011;27586;51.124;4.182;2023-09-19T05:40:40;10.07;;;3.30;;
41903;SDS011;27586;51.124;4.182;2023-09-19T05:43:07;10.15;;;3.38;;
41903;SDS011;27586;51.124;4.182;2023-09-19T05:45:37;13.40;;;3.60;;
41903;SDS011;27586;51.124;4.182;2023-09-19T05:48:09;11.05;;;3.55;;
41903;SDS011;27586;51.124;4.182;2023-09-19T05:50:40;11.07;;;3.72;;
41903;SDS011;27586;51.124;4.182;2023-09-19T05:53:07;12.23;;;3.55;;
41903;SDS011;27586;51.124;4.182;2023-09-19T05:55:33;8.32;;;2.72;;
41903;SDS011;27586;51.124;4.182;2023-09-19T05:57:59;10.15;;;3.33;;
41903;SDS011;27586;51.124;4.182;2023-09-19T06:00:25;10.75;;;3.00;;
41903;SDS011;27586;51.124;4.182;2023-09-19T06:02:56;11.93;;;3.38;;
41903;SDS011;27586;51.124;4.182;2023-09-19T06:05:23;10.35;;;3.72;;
41903;SDS011;27586;51.124;4.182;2023-09-19T06:07:51;12.05;;;3.70;;
41903;SDS011;27586;51.124;4.182;2023-09-19T06:10:17;12.88;;;3.38;;
41903;SDS011;27586;51.124;4.182;2023-09-19T06:12:45;10.10;;;3.50;;
41903;SDS011;27586;51.124;4.182;2023-09-19T06:15:12;12.45;;;3.40;;
41903;SDS011;27586;51.124;4.182;2023-09-19T06:17:50;9.25;;;3.22;;
41903;SDS011;27586;51.124;4.182;2023-09-19T06:20:20;13.60;;;3.17;;
41903;SDS011;27586;51.124;4.182;2023-09-19T06:22:47;11.30;;;3.30;;
41903;SDS011;27586;51.124;4.182;2023-09-19T06:25:14;8.38;;;3.15;;
41903;SDS011;27586;51.124;4.182;2023-09-19T06:27:44;14.50;;;3.58;;
41903;SDS011;27586;51.124;4.182;2023-09-19T06:30:14;10.52;;;3.28;;
41903;SDS011;27586;51.124;4.182;2023-09-19T06:32:40;9.65;;;3.58;;
41903;SDS011;27586;51.124;4.182;2023-09-19T06:35:09;13.90;;;3.15;;
41903;SDS011;27586;51.124;4.182;2023-09-19T06:37:39;11.13;;;2.92;;
41903;SDS011;27586;51.124;4.182;2023-09-19T06:40:07;10.73;;;3.47;;
41903;SDS011;27586;51.124;4.182;2023-09-19T06:42:43;9.93;;;2.90;;
41903;SDS011;27586;51.124;4.182;2023-09-19T06:45:10;8.85;;;3.17;;
41903;SDS011;27586;51.124;4.182;2023-09-19T06:47:38;12.82;;;3.17;;
41903;SDS011;27586;51.124;4.182;2023-09-19T06:50:04;15.27;;;3.70;;
41903;SDS011;27586;51.124;4.182;2023-09-19T06:52:34;10.27;;;3.03;;
41903;SDS011;27586;51.124;4.182;2023-09-19T06:55:00;10.20;;;2.78;;
41903;SDS011;27586;51.124;4.182;2023-09-19T06:57:28;7.65;;;3.22;;
41903;SDS011;27586;51.124;4.182;2023-09-19T06:59:53;8.13;;;2.92;;
41903;SDS011;27586;51.124;4.182;2023-09-19T07:02:19;9.52;;;3.30;;
41903;SDS011;27586;51.124;4.182;2023-09-19T07:04:47;9.68;;;3.08;;
41903;SDS011;27586;51.124;4.182;2023-09-19T07:07:12;10.98;;;3.20;;
41903;SDS011;27586;51.124;4.182;2023-09-19T07:09:39;8.77;;;2.92;;
41903;SDS011;27586;51.124;4.182;2023-09-19T07:12:04;9.25;;;3.22;;
41903;SDS011;27586;51.124;4.182;2023-09-19T07:14:30;8.63;;;2.50;;
41903;SDS011;27586;51.124;4.182;2023-09-19T07:16:57;11.20;;;3.05;;
41903;SDS011;27586;51.124;4.182;2023-09-19T07:19:25;9.30;;;2.88;;
41903;SDS011;27586;51.124;4.182;2023-09-19T07:21:53;8.70;;;3.10;;
41903;SDS011;27586;51.124;4.182;2023-09-19T07:24:19;12.55;;;3.22;;
41903;SDS011;27586;51.124;4.182;2023-09-19T07:26:47;9.57;;;2.83;;
41903;SDS011;27586;51.124;4.182;2023-09-19T07:29:13;7.05;;;3.00;;
41903;SDS011;27586;51.124;4.182;2023-09-19T07:31:39;11.43;;;3.13;;
41903;SDS011;27586;51.124;4.182;2023-09-19T07:34:04;8.15;;;2.80;;
41903;SDS011;27586;51.124;4.182;2023-09-19T07:36:30;8.50;;;3.00;;
41903;SDS011;27586;51.124;4.182;2023-09-19T07:38:57;11.68;;;3.22;;
41903;SDS011;27586;51.124;4.182;2023-09-19T07:41:23;7.78;;;2.58;;
41903;SDS011;27586;51.124;4.182;2023-09-19T07:43:49;9.18;;;2.53;;
41903;SDS011;27586;51.124;4.182;2023-09-19T07:46:15;12.95;;;3.00;;
41903;SDS011;27586;51.124;4.182;2023-09-19T07:48:40;10.23;;;3.03;;
41903;SDS011;27586;51.124;4.182;2023-09-19T07:51:13;7.75;;;2.83;;
41903;SDS011;27586;51.124;4.182;2023-09-19T07:53:41;8.55;;;2.70;;
41903;SDS011;27586;51.124;4.182;2023-09-19T07:56:08;13.13;;;3.30;;
41903;SDS011;27586;51.124;4.182;2023-09-19T07:58:35;6.93;;;2.63;;
41903;SDS011;27586;51.124;4.182;2023-09-19T08:01:05;11.80;;;2.97;;
41903;SDS011;27586;51.124;4.182;2023-09-19T08:03:34;9.63;;;2.75;;
41903;SDS011;27586;51.124;4.182;2023-09-19T08:06:05;13.93;;;3.05;;
41903;SDS011;27586;51.124;4.182;2023-09-19T08:08:32;9.43;;;3.13;;
41903;SDS011;27586;51.124;4.182;2023-09-19T08:11:04;10.05;;;2.90;;
41903;SDS011;27586;51.124;4.182;2023-09-19T08:13:40;9.52;;;2.50;;
41903;SDS011;27586;51.124;4.182;2023-09-19T08:16:10;11.52;;;2.92;;
41903;SDS011;27586;51.124;4.182;2023-09-19T08:18:36;14.73;;;3.15;;
41903;SDS011;27586;51.124;4.182;2023-09-19T08:21:05;11.88;;;3.08;;
41903;SDS011;27586;51.124;4.182;2023-09-19T08:23:38;7.85;;;2.85;;
41903;SDS011;27586;51.124;4.182;2023-09-19T08:26:05;12.55;;;3.25;;
41903;SDS011;27586;51.124;4.182;2023-09-19T08:28:34;12.82;;;3.10;;
41903;SDS011;27586;51.124;4.182;2023-09-19T08:31:03;9.75;;;2.80;;
41903;SDS011;27586;51.124;4.182;2023-09-19T08:33:31;10.32;;;2.90;;
41903;SDS011;27586;51.124;4.182;2023-09-19T08:35:57;8.32;;;3.25;;
41903;SDS011;27586;51.124;4.182;2023-09-19T08:38:26;10.05;;;2.45;;
41903;SDS011;27586;51.124;4.182;2023-09-19T08:41:04;7.50;;;2.78;;
41903;SDS011;27586;51.124;4.182;2023-09-19T08:43:32;15.35;;;3.40;;
41903;SDS011;27586;51.124;4.182;2023-09-19T08:48:31;9.30;;;3.25;;
41903;SDS011;27586;51.124;4.182;2023-09-19T08:51:02;8.15;;;2.40;;
41903;SDS011;27586;51.124;4.182;2023-09-19T08:53:42;11.25;;;3.10;;
41903;SDS011;27586;51.124;4.182;2023-09-19T08:56:17;11.30;;;3.28;;
41903;SDS011;27586;51.124;4.182;2023-09-19T08:58:57;12.32;;;3.00;;
41903;SDS011;27586;51.124;4.182;2023-09-19T09:01:27;12.27;;;2.63;;
41903;SDS011;27586;51.124;4.182;2023-09-19T09:03:54;9.85;;;2.90;;
41903;SDS011;27586;51.124;4.182;2023-09-19T09:06:21;6.57;;;2.50;;
41903;SDS011;27586;51.124;4.182;2023-09-19T09:08:48;7.82;;;2.65;;
41903;SDS011;27586;51.124;4.182;2023-09-19T09:11:16;10.80;;;2.67;;
41903;SDS011;27586;51.124;4.182;2023-09-19T09:13:43;8.40;;;2.60;;
41903;SDS011;27586;51.124;4.182;2023-09-19T09:16:12;8.73;;;2.70;;
41903;SDS011;27586;51.124;4.182;2023-09-19T09:18:44;7.60;;;2.10;;
41903;SDS011;27586;51.124;4.182;2023-09-19T09:21:19;7.63;;;2.60;;
41903;SDS011;27586;51.124;4.182;2023-09-19T09:23:46;9.23;;;2.63;;
41903;SDS011;27586;51.124;4.182;2023-09-19T09:26:12;8.85;;;2.80;;
41903;SDS011;27586;51.124;4.182;2023-09-19T09:28:44;8.95;;;1.98;;
41903;SDS011;27586;51.124;4.182;2023-09-19T09:31:23;5.78;;;1.95;;
41903;SDS011;27586;51.124;4.182;2023-09-19T09:33:56;8.60;;;2.53;;
41903;SDS011;27586;51.124;4.182;2023-09-19T09:36:38;6.72;;;2.30;;
41903;SDS011;27586;51.124;4.182;2023-09-19T09:39:06;7.57;;;2.50;;
41903;SDS011;27586;51.124;4.182;2023-09-19T09:41:43;8.25;;;2.63;;
41903;SDS011;27586;51.124;4.182;2023-09-19T09:44:13;5.93;;;2.22;;
41903;SDS011;27586;51.124;4.182;2023-09-19T09:46:46;5.85;;;2.13;;
41903;SDS011;27586;51.124;4.182;2023-09-19T09:49:35;8.65;;;2.20;;
41903;SDS011;27586;51.124;4.182;2023-09-19T09:54:32;6.50;;;2.00;;
41903;SDS011;27586;51.124;4.182;2023-09-19T09:57:01;7.53;;;2.50;;
41903;SDS011;27586;51.124;4.182;2023-09-19T10:02:15;5.32;;;2.00;;
41903;SDS011;27586;51.124;4.182;2023-09-19T10:04:54;6.05;;;2.03;;
41903;SDS011;27586;51.124;4.182;2023-09-19T10:07:31;7.22;;;1.88;;
41903;SDS011;27586;51.124;4.182;2023-09-19T10:10:07;4.53;;;1.92;;
41903;SDS011;27586;51.124;4.182;2023-09-19T10:12:48;6.43;;;2.10;;
41903;SDS011;27586;51.124;4.182;2023-09-19T10:15:17;6.07;;;1.90;;
41903;SDS011;27586;51.124;4.182;2023-09-19T10:17:49;4.72;;;1.98;;
41903;SDS011;27586;51.124;4.182;2023-09-19T10:20:21;7.30;;;1.88;;
41903;SDS011;27586;51.124;4.182;2023-09-19T10:22:57;6.40;;;1.90;;
41903;SDS011;27586;51.124;4.182;2023-09-19T10:25:25;7.85;;;1.95;;
41903;SDS011;27586;51.124;4.182;2023-09-19T10:28:01;7.55;;;1.85;;
41903;SDS011;27586;51.124;4.182;2023-09-19T10:30:30;8.07;;;2.00;;
41903;SDS011;27586;51.124;4.182;2023-09-19T10:33:02;6.70;;;2.13;;
41903;SDS011;27586;51.124;4.182;2023-09-19T10:35:30;7.97;;;1.67;;
41903;SDS011;27586;51.124;4.182;2023-09-19T10:38:01;7.38;;;1.98;;
41903;SDS011;27586;51.124;4.182;2023-09-19T10:40:29;5.03;;;1.60;;
41903;SDS011;27586;51.124;4.182;2023-09-19T10:43:01;5.72;;;1.60;;
41903;SDS011;27586;51.124;4.182;2023-09-19T10:45:30;5.20;;;1.60;;
41903;SDS011;27586;51.124;4.182;2023-09-19T10:47:57;5.00;;;1.60;;
41903;SDS011;27586;51.124;4.182;2023-09-19T10:50:24;7.47;;;1.60;;
41903;SDS011;27586;51.124;4.182;2023-09-19T10:52:50;5.63;;;1.42;;
41903;SDS011;27586;51.124;4.182;2023-09-19T10:55:24;4.82;;;1.80;;
41903;SDS011;27586;51.124;4.182;2023-09-19T10:57:53;4.97;;;1.55;;
41903;SDS011;27586;51.124;4.182;2023-09-19T11:00:19;6.90;;;1.60;;
41903;SDS011;27586;51.124;4.182;2023-09-19T11:06:01;5.68;;;1.50;;
41903;SDS011;27586;51.124;4.182;2023-09-19T11:08:29;3.30;;;1.40;;
41903;SDS011;27586;51.124;4.182;2023-09-19T11:11:38;6.13;;;1.40;;
41903;SDS011;27586;51.124;4.182;2023-09-19T11:30:37;3.35;;;1.30;;
41903;SDS011;27586;51.124;4.182;2023-09-19T11:46:29;5.32;;;1.33;;
41903;SDS011;27586;51.124;4.182;2023-09-19T11:49:04;4.28;;;1.20;;
41903;SDS011;27586;51.124;4.182;2023-09-19T11:51:41;4.00;;;1.23;;
41903;SDS011;27586;51.124;4.182;2023-09-19T11:54:12;3.25;;;1.10;;
41903;SDS011;27586;51.124;4.182;2023-09-19T11:56:43;1.75;;;1.23;;
41903;SDS011;27586;51.124;4.182;2023-09-19T11:59:10;4.40;;;1.20;;
41903;SDS011;27586;51.124;4.182;2023-09-19T12:01:37;3.45;;;1.13;;
41903;SDS011;27586;51.124;4.182;2023-09-19T12:04:08;4.60;;;1.40;;
41903;SDS011;27586;51.124;4.182;2023-09-19T12:06:36;5.25;;;1.30;;
41903;SDS011;27586;51.124;4.182;2023-09-19T12:09:04;4.10;;;1.10;;
41903;SDS011;27586;51.124;4.182;2023-09-19T12:11:40;4.05;;;1.10;;
41903;SDS011;27586;51.124;4.182;2023-09-19T12:14:09;4.20;;;1.27;;
41903;SDS011;27586;51.124;4.182;2023-09-19T12:16:35;5.43;;;1.40;;
41903;SDS011;27586;51.124;4.182;2023-09-19T12:19:20;2.40;;;1.23;;
41903;SDS011;27586;51.124;4.182;2023-09-19T12:21:56;3.58;;;1.15;;
41903;SDS011;27586;51.124;4.182;2023-09-19T12:24:24;3.20;;;1.52;;
41903;SDS011;27586;51.124;4.182;2023-09-19T12:26:54;3.75;;;1.20;;
41903;SDS011;27586;51.124;4.182;2023-09-19T12:29:29;4.78;;;1.30;;
41903;SDS011;27586;51.124;4.182;2023-09-19T12:31:59;5.43;;;1.30;;
41903;SDS011;27586;51.124;4.182;2023-09-19T12:34:31;3.20;;;1.30;;
41903;SDS011;27586;51.124;4.182;2023-09-19T12:39:37;3.40;;;1.27;;
41903;SDS011;27586;51.124;4.182;2023-09-19T12:42:03;4.78;;;1.50;;
41903;SDS011;27586;51.124;4.182;2023-09-19T12:44:33;5.35;;;1.30;;
41903;SDS011;27586;51.124;4.182;2023-09-19T12:47:07;5.95;;;1.63;;
41903;SDS011;27586;51.124;4.182;2023-09-19T12:52:39;4.90;;;1.73;;
41903;SDS011;27586;51.124;4.182;2023-09-19T12:55:06;3.08;;;1.23;;
41903;SDS011;27586;51.124;4.182;2023-09-19T12:57:33;3.78;;;1.75;;
41903;SDS011;27586;51.124;4.182;2023-09-19T13:00:00;6.80;;;1.45;;
41903;SDS011;27586;51.124;4.182;2023-09-19T13:02:43;6.80;;;1.40;;
41903;SDS011;27586;51.124;4.182;2023-09-19T13:05:54;3.42;;;1.40;;
41903;SDS011;27586;51.124;4.182;2023-09-19T13:19:36;4.90;;;1.42;;
41903;SDS011;27586;51.124;4.182;2023-09-19T13:25:23;4.72;;;1.50;;
41903;SDS011;27586;51.124;4.182;2023-09-19T13:27:53;3.97;;;1.27;;
41903;SDS011;27586;51.124;4.182;2023-09-19T13:30:21;4.70;;;1.65;;
41903;SDS011;27586;51.124;4.182;2023-09-19T13:32:48;4.18;;;1.27;;
41903;SDS011;27586;51.124;4.182;2023-09-19T13:35:14;2.13;;;1.13;;
41903;SDS011;27586;51.124;4.182;2023-09-19T13:37:40;5.03;;;1.95;;
41903;SDS011;27586;51.124;4.182;2023-09-19T13:40:11;5.40;;;1.90;;
41903;SDS011;27586;51.124;4.182;2023-09-19T13:42:38;2.80;;;1.20;;
41903;SDS011;27586;51.124;4.182;2023-09-19T13:45:05;3.28;;;1.17;;
41903;SDS011;27586;51.124;4.182;2023-09-19T13:47:31;3.58;;;1.50;;
41903;SDS011;27586;51.124;4.182;2023-09-19T13:49:58;6.18;;;1.65;;
41903;SDS011;27586;51.124;4.182;2023-09-19T13:52:24;3.42;;;1.33;;
41903;SDS011;27586;51.124;4.182;2023-09-19T13:54:53;7.05;;;1.80;;
41903;SDS011;27586;51.124;4.182;2023-09-19T13:57:21;5.38;;;1.80;;
41903;SDS011;27586;51.124;4.182;2023-09-19T13:59:53;3.38;;;1.17;;
41903;SDS011;27586;51.124;4.182;2023-09-19T14:02:19;4.65;;;1.60;;
41903;SDS011;27586;51.124;4.182;2023-09-19T14:04:49;5.40;;;1.63;;
41903;SDS011;27586;51.124;4.182;2023-09-19T14:07:15;3.58;;;1.27;;
41903;SDS011;27586;51.124;4.182;2023-09-19T14:09:42;3.80;;;1.58;;
41903;SDS011;27586;51.124;4.182;2023-09-19T14:12:08;5.03;;;1.77;;
41903;SDS011;27586;51.124;4.182;2023-09-19T14:14:34;3.38;;;1.60;;
41903;SDS011;27586;51.124;4.182;2023-09-19T14:17:00;4.00;;;1.42;;
41903;SDS011;27586;51.124;4.182;2023-09-19T14:19:35;4.30;;;1.55;;
41903;SDS011;27586;51.124;4.182;2023-09-19T14:22:02;5.55;;;1.42;;
41903;SDS011;27586;51.124;4.182;2023-09-19T14:24:32;4.30;;;1.52;;
41903;SDS011;27586;51.124;4.182;2023-09-19T14:26:58;6.43;;;1.92;;
41903;SDS011;27586;51.124;4.182;2023-09-19T14:29:24;6.28;;;1.73;;
41903;SDS011;27586;51.124;4.182;2023-09-19T14:31:50;2.47;;;1.45;;
41903;SDS011;27586;51.124;4.182;2023-09-19T14:34:17;6.13;;;1.92;;
41903;SDS011;27586;51.124;4.182;2023-09-19T14:36:42;4.05;;;1.73;;
41903;SDS011;27586;51.124;4.182;2023-09-19T14:39:08;5.50;;;1.52;;
41903;SDS011;27586;51.124;4.182;2023-09-19T14:41:34;4.85;;;1.60;;
41903;SDS011;27586;51.124;4.182;2023-09-19T14:44:02;4.28;;;1.60;;
41903;SDS011;27586;51.124;4.182;2023-09-19T14:46:28;8.13;;;1.70;;
41903;SDS011;27586;51.124;4.182;2023-09-19T14:48:54;4.30;;;1.80;;
41903;SDS011;27586;51.124;4.182;2023-09-19T14:51:24;4.90;;;1.45;;
41903;SDS011;27586;51.124;4.182;2023-09-19T14:53:50;5.53;;;1.92;;
41903;SDS011;27586;51.124;4.182;2023-09-19T14:56:19;7.65;;;2.00;;
41903;SDS011;27586;51.124;4.182;2023-09-19T14:58:45;5.07;;;1.80;;
41903;SDS011;27586;51.124;4.182;2023-09-19T15:01:12;6.60;;;1.92;;
41903;SDS011;27586;51.124;4.182;2023-09-19T15:03:39;4.68;;;1.83;;
41903;SDS011;27586;51.124;4.182;2023-09-19T15:06:06;6.68;;;1.98;;
41903;SDS011;27586;51.124;4.182;2023-09-19T15:08:35;3.95;;;1.85;;
41903;SDS011;27586;51.124;4.182;2023-09-19T15:11:06;5.25;;;1.70;;
41903;SDS011;27586;51.124;4.182;2023-09-19T15:13:33;5.38;;;1.70;;
41903;SDS011;27586;51.124;4.182;2023-09-19T15:16:00;4.10;;;1.95;;
41903;SDS011;27586;51.124;4.182;2023-09-19T15:18:30;5.13;;;1.85;;
41903;SDS011;27586;51.124;4.182;2023-09-19T15:21:01;6.45;;;1.90;;
41903;SDS011;27586;51.124;4.182;2023-09-19T15:23:28;5.07;;;1.88;;
41903;SDS011;27586;51.124;4.182;2023-09-19T15:26:01;4.53;;;1.67;;
41903;SDS011;27586;51.124;4.182;2023-09-19T15:28:36;5.32;;;2.00;;
41903;SDS011;27586;51.124;4.182;2023-09-19T15:31:09;5.50;;;1.80;;
41903;SDS011;27586;51.124;4.182;2023-09-19T15:33:36;6.22;;;2.30;;
41903;SDS011;27586;51.124;4.182;2023-09-19T15:36:02;5.20;;;2.00;;
41903;SDS011;27586;51.124;4.182;2023-09-19T15:38:29;6.63;;;2.03;;
41903;SDS011;27586;51.124;4.182;2023-09-19T15:40:56;4.93;;;1.60;;
41903;SDS011;27586;51.124;4.182;2023-09-19T15:43:22;4.25;;;1.80;;
41903;SDS011;27586;51.124;4.182;2023-09-19T15:45:49;6.93;;;2.05;;
41903;SDS011;27586;51.124;4.182;2023-09-19T15:48:15;6.20;;;1.90;;
41903;SDS011;27586;51.124;4.182;2023-09-19T15:50:41;4.93;;;1.73;;
41903;SDS011;27586;51.124;4.182;2023-09-19T15:53:09;4.45;;;1.60;;
41903;SDS011;27586;51.124;4.182;2023-09-19T15:55:40;6.55;;;2.20;;
41903;SDS011;27586;51.124;4.182;2023-09-19T15:58:06;4.53;;;1.67;;
41903;SDS011;27586;51.124;4.182;2023-09-19T16:00:32;3.83;;;1.77;;
41903;SDS011;27586;51.124;4.182;2023-09-19T16:03:01;5.05;;;1.92;;
41903;SDS011;27586;51.124;4.182;2023-09-19T16:05:27;6.05;;;1.88;;
41903;SDS011;27586;51.124;4.182;2023-09-19T16:07:53;4.60;;;2.13;;